Terminal Aerodrome Forecast
Issued by NWS

Current Version | Previous Version | Text Only | Print | Product List | Glossary On
Versions: 1 2 3 4 5 6 7 8 9 10 11 12 13 14 15 16
181
FTUS46 KSEW 270520
TAFOLM
TAF
KOLM 270520Z 2706/2806 21007KT P6SM SCT025 BKN035
     FM271100 20006KT P6SM BKN022
      TEMPO 2712/2716 OVC018
     FM271900 23008KT P6SM VCSH SCT020 OVC030
     FM272200 27010KT P6SM -SHRA BKN035
     FM280400 22006KT P6SM VCSH BKN030=

USA.gov is the U.S. government's official web portal to all federal, state and local government web resources and services.